createdAt,value
2017-08-01T00:00:47.284Z,22.50
2017-08-01T00:03:13.717Z,22.40
2017-08-01T00:05:40.131Z,22.40
2017-08-01T00:08:06.564Z,22.40
2017-08-01T00:10:32.988Z,22.30
2017-08-01T00:12:59.394Z,22.20
2017-08-01T00:15:26.541Z,22.20
2017-08-01T00:17:53.692Z,22.20
2017-08-01T00:20:20.849Z,22.30
2017-08-01T00:22:47.978Z,22.30
2017-08-01T00:25:14.387Z,22.20
2017-08-01T00:27:40.792Z,22.30
2017-08-01T00:30:07.185Z,22.30
2017-08-01T00:32:34.358Z,22.20
2017-08-01T00:35:00.785Z,22.20
2017-08-01T00:37:27.181Z,22.10
2017-08-01T00:39:53.594Z,22.00
2017-08-01T00:42:19.998Z,22.00
2017-08-01T00:44:46.404Z,21.90
2017-08-01T00:47:13.544Z,21.90
2017-08-01T00:49:39.974Z,21.80
2017-08-01T00:52:06.405Z,21.90
2017-08-01T00:54:32.805Z,22.00
2017-08-01T00:56:59.212Z,22.10
2017-08-01T00:59:25.775Z,22.20
2017-08-01T01:01:52.153Z,22.20
2017-08-01T01:04:19.677Z,22.20
2017-08-01T01:06:46.092Z,22.30
2017-08-01T01:09:12.479Z,22.20
2017-08-01T01:11:39.628Z,22.30
2017-08-01T01:14:06.773Z,22.30
2017-08-01T01:16:37.652Z,22.20
2017-08-01T01:19:04.068Z,22.20
2017-08-01T01:21:30.525Z,22.20
2017-08-01T01:23:56.940Z,22.30
2017-08-01T01:26:23.358Z,22.30
2017-08-01T01:28:49.781Z,22.20
2017-08-01T01:31:17.067Z,22.20
2017-08-01T01:33:43.557Z,22.20
2017-08-01T01:36:10.756Z,22.00
2017-08-01T01:38:37.225Z,22.00
2017-08-01T01:41:03.676Z,21.90
2017-08-01T01:43:30.863Z,21.80
2017-08-01T01:45:57.308Z,21.80
2017-08-01T01:48:23.800Z,21.70
2017-08-01T01:50:51.002Z,21.80
2017-08-01T01:53:17.464Z,21.70
2017-08-01T01:55:43.892Z,21.70
2017-08-01T01:58:10.301Z,21.70
2017-08-01T02:00:36.731Z,21.60
2017-08-01T02:03:03.125Z,21.60
2017-08-01T02:05:30.292Z,21.50
2017-08-01T02:07:56.707Z,21.50
2017-08-01T02:10:24.079Z,21.30
2017-08-01T02:12:50.524Z,21.30
2017-08-01T02:15:16.930Z,21.20
2017-08-01T02:17:44.112Z,21.30
2017-08-01T02:20:10.543Z,21.20
2017-08-01T02:22:36.993Z,21.30
2017-08-01T02:25:03.381Z,21.40
2017-08-01T02:27:30.553Z,21.20
2017-08-01T02:29:56.988Z,21.20
2017-08-01T02:32:23.454Z,21.10
2017-08-01T02:34:49.880Z,20.90
2017-08-01T02:37:16.292Z,20.80
2017-08-01T02:39:42.726Z,20.80
2017-08-01T02:42:09.126Z,20.80
2017-08-01T02:44:36.247Z,20.70
2017-08-01T02:47:02.677Z,20.70
2017-08-01T02:49:29.072Z,20.80
2017-08-01T02:51:55.467Z,20.70
2017-08-01T02:54:22.640Z,20.60
2017-08-01T02:56:49.057Z,20.60
2017-08-01T02:59:16.193Z,20.70
2017-08-01T03:01:42.571Z,20.70
2017-08-01T03:04:08.991Z,20.80
2017-08-01T03:06:35.403Z,20.80
2017-08-01T03:09:02.631Z,20.70
2017-08-01T03:11:29.148Z,20.70
2017-08-01T03:13:55.556Z,20.60
2017-08-01T03:16:22.015Z,20.60
2017-08-01T03:18:48.435Z,20.60
2017-08-01T03:21:14.817Z,20.60
2017-08-01T03:23:41.957Z,20.70
2017-08-01T03:26:08.396Z,20.70
2017-08-01T03:28:35.533Z,20.70
2017-08-01T03:31:01.944Z,20.70
2017-08-01T03:33:28.341Z,20.80
2017-08-01T03:35:54.770Z,20.80
2017-08-01T03:38:21.145Z,20.80
2017-08-01T03:40:47.548Z,20.80
2017-08-01T03:43:13.961Z,20.70
2017-08-01T03:45:40.360Z,20.70
2017-08-01T03:48:06.816Z,20.60
2017-08-01T03:50:33.948Z,20.60
2017-08-01T03:53:00.341Z,20.60
2017-08-01T03:55:26.751Z,20.60
2017-08-01T03:57:53.197Z,20.60
2017-08-01T04:00:19.592Z,20.60
2017-08-01T04:02:46.778Z,20.70
2017-08-01T04:05:13.177Z,20.70
2017-08-01T04:07:40.313Z,20.80
2017-08-01T04:10:06.724Z,20.80
2017-08-01T04:12:33.221Z,20.70
2017-08-01T04:14:59.626Z,20.60
2017-08-01T04:17:26.783Z,20.60
2017-08-01T04:19:53.593Z,20.60
2017-08-01T04:22:20.003Z,20.70
2017-08-01T04:24:46.418Z,20.80
2017-08-01T04:27:12.845Z,20.80
2017-08-01T04:29:39.235Z,20.80
2017-08-01T04:32:06.361Z,20.90
2017-08-01T04:34:32.765Z,20.90
2017-08-01T04:36:59.184Z,20.90
2017-08-01T04:39:25.610Z,20.90
2017-08-01T04:41:52.007Z,21.00
2017-08-01T04:44:18.482Z,21.00
2017-08-01T04:46:44.891Z,21.10
2017-08-01T04:49:11.271Z,21.10
2017-08-01T04:51:37.708Z,21.20
2017-08-01T04:54:04.128Z,21.30
2017-08-01T04:56:30.540Z,21.40
2017-08-01T04:58:56.945Z,21.50
2017-08-01T05:01:23.393Z,21.50
2017-08-01T05:03:50.557Z,21.60
2017-08-01T05:06:16.983Z,21.60
2017-08-01T05:08:44.158Z,21.80
2017-08-01T05:11:10.553Z,21.70
2017-08-01T05:13:37.672Z,21.90
2017-08-01T05:16:04.110Z,21.90
2017-08-01T05:18:30.596Z,22.00
2017-08-01T05:20:57.055Z,22.10
2017-08-01T05:23:23.440Z,22.20
2017-08-01T05:25:50.577Z,22.40
2017-08-01T05:28:16.995Z,22.40
2017-08-01T05:30:43.375Z,22.50
2017-08-01T05:33:09.778Z,22.60
2017-08-01T05:35:36.932Z,22.90
2017-08-01T05:38:04.092Z,22.90
2017-08-01T05:40:31.267Z,23.00
2017-08-01T05:42:57.669Z,23.00
2017-08-01T05:45:24.892Z,23.30
2017-08-01T05:47:51.278Z,23.30
2017-08-01T05:50:17.675Z,23.30
2017-08-01T05:52:44.081Z,23.50
2017-08-01T05:55:10.504Z,23.60
2017-08-01T05:57:36.884Z,23.70
2017-08-01T06:00:04.065Z,24.00
2017-08-01T06:02:30.481Z,24.00
2017-08-01T06:04:56.897Z,24.20
2017-08-01T06:07:24.052Z,24.80
2017-08-01T06:09:51.234Z,25.20
2017-08-01T06:12:17.658Z,25.20
2017-08-01T06:14:44.100Z,25.50
2017-08-01T06:17:10.571Z,26.00
2017-08-01T06:19:36.996Z,26.50
2017-08-01T06:22:03.540Z,27.20
2017-08-01T06:24:30.213Z,27.80
2017-08-01T06:26:56.612Z,28.30
2017-08-01T06:29:23.042Z,28.50
2017-08-01T06:31:49.504Z,28.80
2017-08-01T06:34:15.944Z,29.10
2017-08-01T06:36:43.099Z,29.80
2017-08-01T06:39:09.513Z,29.80
2017-08-01T06:41:36.711Z,30.20
2017-08-01T06:44:03.156Z,30.20
2017-08-01T06:46:29.572Z,30.30
2017-08-01T06:48:55.977Z,30.20
2017-08-01T06:51:22.407Z,30.00
2017-08-01T06:53:48.845Z,29.80
2017-08-01T06:56:15.269Z,29.50
2017-08-01T06:58:41.730Z,29.40
2017-08-01T07:01:08.138Z,29.10
2017-08-01T07:03:35.284Z,29.60
2017-08-01T07:06:02.425Z,29.60
2017-08-01T07:08:28.825Z,29.60
2017-08-01T07:11:02.080Z,29.60
2017-08-01T07:13:28.524Z,29.90
2017-08-01T07:15:54.936Z,30.00
2017-08-01T07:18:21.376Z,30.20
2017-08-01T07:20:47.802Z,30.10
2017-08-01T07:23:14.217Z,30.20
2017-08-01T07:25:40.673Z,30.40
2017-08-01T07:28:07.066Z,30.30
2017-08-01T07:33:52.207Z,30.10
2017-08-01T07:36:41.387Z,29.70
2017-08-01T07:42:11.114Z,29.60
2017-08-01T07:44:52.129Z,29.50
2017-08-01T07:47:21.275Z,29.40
2017-08-01T07:49:47.680Z,29.40
2017-08-01T07:52:14.820Z,29.60
2017-08-01T07:54:41.253Z,29.60
2017-08-01T07:57:07.657Z,29.60
2017-08-01T07:59:34.057Z,29.70
2017-08-01T08:02:00.462Z,29.80
2017-08-01T08:04:26.851Z,30.10
2017-08-01T08:06:53.272Z,30.10
2017-08-01T08:09:19.704Z,30.00
2017-08-01T08:11:46.110Z,30.00
2017-08-01T08:14:13.242Z,30.30
2017-08-01T08:16:39.644Z,30.30
2017-08-01T08:19:06.027Z,30.30
2017-08-01T08:21:33.180Z,30.60
2017-08-01T08:24:00.317Z,30.60
2017-08-01T08:26:26.696Z,30.60
2017-08-01T08:28:53.125Z,30.60
2017-08-01T08:31:19.609Z,30.80
2017-08-01T08:33:46.045Z,31.00
2017-08-01T08:36:12.437Z,31.20
2017-08-01T08:38:38.846Z,31.40
2017-08-01T08:41:05.248Z,31.40
2017-08-01T08:43:31.878Z,31.30
2017-08-01T08:45:59.028Z,31.40
2017-08-01T08:48:25.465Z,31.40
2017-08-01T08:50:51.865Z,31.60
2017-08-01T08:53:18.268Z,31.70
2017-08-01T08:55:44.685Z,31.70
2017-08-01T08:58:11.098Z,31.90
2017-08-01T09:00:37.502Z,32.10
2017-08-01T09:03:04.789Z,32.10
2017-08-01T09:05:31.184Z,32.20
2017-08-01T09:07:57.557Z,32.20
2017-08-01T09:10:23.939Z,32.20
2017-08-01T09:12:50.349Z,32.20
2017-08-01T09:15:16.741Z,32.50
2017-08-01T09:17:43.154Z,32.50
2017-08-01T09:20:09.583Z,32.50
2017-08-01T09:22:35.978Z,32.40
2017-08-01T09:25:02.406Z,32.20
2017-08-01T09:27:28.869Z,32.20
2017-08-01T09:29:55.451Z,32.40
2017-08-01T09:32:21.866Z,32.60
2017-08-01T09:34:48.328Z,33.00
2017-08-01T09:37:15.470Z,33.50
2017-08-01T09:39:42.580Z,33.50
2017-08-01T09:42:08.952Z,33.50
2017-08-01T09:44:36.089Z,33.40
2017-08-01T09:47:02.560Z,33.40
2017-08-01T09:49:28.980Z,33.60
2017-08-01T09:51:56.133Z,33.10
2017-08-01T09:54:22.546Z,33.10
2017-08-01T09:56:49.425Z,33.20
2017-08-01T09:59:15.834Z,33.30
2017-08-01T10:01:42.958Z,34.10
2017-08-01T10:04:09.333Z,34.00
2017-08-01T10:06:35.740Z,34.20
2017-08-01T10:09:02.942Z,33.50
2017-08-01T10:11:29.331Z,33.40
2017-08-01T10:13:56.469Z,33.50
2017-08-01T10:16:23.622Z,33.60
2017-08-01T10:18:50.747Z,33.60
2017-08-01T10:21:17.186Z,33.70
2017-08-01T10:23:43.588Z,33.60
2017-08-01T10:26:10.001Z,33.50
2017-08-01T10:28:36.393Z,33.70
2017-08-01T10:31:02.777Z,33.80
2017-08-01T10:33:29.186Z,33.80
2017-08-01T10:35:55.595Z,33.70
2017-08-01T10:38:21.986Z,33.80
2017-08-01T10:40:48.391Z,33.70
2017-08-01T10:43:14.792Z,33.80
2017-08-01T10:45:41.161Z,33.90
2017-08-01T10:48:07.568Z,34.00
2017-08-01T10:50:34.061Z,34.10
2017-08-01T10:53:00.466Z,34.00
2017-08-01T10:55:26.857Z,34.00
2017-08-01T10:57:53.232Z,34.20
2017-08-01T11:00:19.663Z,34.40
2017-08-01T11:02:46.057Z,34.60
2017-08-01T11:05:13.204Z,34.70
2017-08-01T11:07:40.340Z,34.80
2017-08-01T11:10:06.741Z,34.80
2017-08-01T11:12:33.195Z,34.90
2017-08-01T11:15:00.405Z,35.00
2017-08-01T11:17:26.836Z,35.10
2017-08-01T11:19:53.233Z,35.10
2017-08-01T11:22:19.632Z,35.30
2017-08-01T11:24:46.112Z,35.40
2017-08-01T11:27:13.262Z,35.20
2017-08-01T11:29:39.656Z,35.20
2017-08-01T11:32:06.084Z,35.10
2017-08-01T11:34:32.517Z,35.30
2017-08-01T11:37:05.825Z,35.30
2017-08-01T11:39:32.262Z,35.30
2017-08-01T11:41:58.659Z,35.50
2017-08-01T11:44:25.044Z,35.60
2017-08-01T11:46:51.412Z,35.70
2017-08-01T11:52:17.777Z,35.70
2017-08-01T11:54:44.242Z,35.80
2017-08-01T11:57:10.649Z,35.60
2017-08-01T11:59:37.055Z,35.30
2017-08-01T12:02:03.453Z,35.30
2017-08-01T12:04:29.893Z,35.50
2017-08-01T12:06:56.276Z,35.80
2017-08-01T12:09:22.655Z,36.00
2017-08-01T12:11:49.056Z,35.80
2017-08-01T12:14:15.509Z,35.40
2017-08-01T12:16:41.917Z,35.40
2017-08-01T12:19:08.296Z,35.40
2017-08-01T12:21:35.414Z,35.50
2017-08-01T12:24:01.833Z,35.50
2017-08-01T12:26:28.236Z,35.40
2017-08-01T12:28:54.637Z,35.50
2017-08-01T12:31:21.060Z,35.20
2017-08-01T12:33:47.448Z,35.40
2017-08-01T12:36:13.849Z,35.30
2017-08-01T12:38:40.981Z,35.60
2017-08-01T12:41:07.352Z,35.60
2017-08-01T12:43:33.751Z,35.50
2017-08-01T12:46:00.153Z,35.80
2017-08-01T12:48:26.576Z,36.10
2017-08-01T12:50:52.984Z,36.20
2017-08-01T12:53:19.392Z,36.20
2017-08-01T12:55:46.592Z,36.00
2017-08-01T12:58:12.976Z,36.00
2017-08-01T13:00:40.133Z,35.60
2017-08-01T13:03:07.251Z,35.40
2017-08-01T13:05:33.643Z,35.40
2017-08-01T13:08:00.330Z,35.50
2017-08-01T13:10:26.753Z,35.60
2017-08-01T13:12:53.151Z,35.60
2017-08-01T13:15:19.570Z,35.60
2017-08-01T13:17:45.971Z,35.70
2017-08-01T13:20:12.357Z,35.60
2017-08-01T13:22:38.752Z,35.70
2017-08-01T13:25:05.892Z,35.70
2017-08-01T13:27:33.012Z,35.70
2017-08-01T13:29:59.438Z,35.70
2017-08-01T13:32:25.900Z,35.90
2017-08-01T13:34:52.272Z,35.80
2017-08-01T13:37:33.599Z,35.80
2017-08-01T13:39:59.989Z,35.80
2017-08-01T13:42:26.423Z,36.00
2017-08-01T13:44:52.832Z,36.00
2017-08-01T13:47:19.976Z,35.90
2017-08-01T13:50:02.047Z,36.00
2017-08-01T13:52:28.445Z,35.90
2017-08-01T13:54:54.890Z,35.80
2017-08-01T13:57:21.279Z,35.80
2017-08-01T13:59:48.448Z,36.00
2017-08-01T14:02:14.831Z,36.00
2017-08-01T14:04:41.253Z,36.20
2017-08-01T14:07:07.642Z,36.40
2017-08-01T14:09:34.040Z,36.30
2017-08-01T14:12:01.198Z,36.70
2017-08-01T14:14:28.369Z,36.50
2017-08-01T14:16:54.780Z,36.40
2017-08-01T14:19:21.912Z,36.00
2017-08-01T14:21:48.293Z,36.00
2017-08-01T14:24:14.693Z,36.10
2017-08-01T14:26:41.843Z,36.10
2017-08-01T14:29:09.022Z,35.90
2017-08-01T14:31:35.445Z,35.80
2017-08-01T14:34:01.847Z,36.10
2017-08-01T14:36:28.256Z,36.20
2017-08-01T14:38:54.664Z,36.20
2017-08-01T14:41:21.082Z,35.90
2017-08-01T14:43:47.486Z,35.80
2017-08-01T14:46:14.612Z,35.80
2017-08-01T14:48:41.003Z,35.80
2017-08-01T14:51:07.394Z,35.80
2017-08-01T14:53:33.803Z,35.90
2017-08-01T14:56:00.201Z,35.90
2017-08-01T14:58:26.613Z,36.00
2017-08-01T15:00:53.747Z,35.90
2017-08-01T15:03:20.135Z,35.80
2017-08-01T15:05:46.529Z,35.80
2017-08-01T15:08:13.660Z,35.80
2017-08-01T15:10:40.089Z,35.80
2017-08-01T15:13:06.489Z,35.90
2017-08-01T15:15:32.909Z,35.90
2017-08-01T15:17:59.306Z,36.00
2017-08-01T15:20:26.430Z,36.10
2017-08-01T15:22:52.845Z,36.10
2017-08-01T15:25:19.231Z,36.20
2017-08-01T15:27:46.390Z,36.00
2017-08-01T15:30:12.839Z,35.90
2017-08-01T15:32:39.260Z,35.60
2017-08-01T15:35:05.671Z,35.70
2017-08-01T15:37:32.843Z,35.70
2017-08-01T15:39:59.278Z,35.70
2017-08-01T15:42:25.681Z,35.70
2017-08-01T15:44:52.831Z,35.60
2017-08-01T15:47:19.951Z,35.50
2017-08-01T15:49:46.340Z,35.40
2017-08-01T15:52:12.739Z,35.30
2017-08-01T15:54:39.127Z,35.60
2017-08-01T15:57:05.520Z,35.60
2017-08-01T15:59:32.674Z,35.60
2017-08-01T16:01:59.057Z,35.60
2017-08-01T16:04:25.514Z,35.40
2017-08-01T16:06:51.931Z,35.30
2017-08-01T16:09:18.351Z,35.30
2017-08-01T16:11:44.751Z,35.30
2017-08-01T16:14:11.242Z,35.20
2017-08-01T16:16:37.641Z,35.40
2017-08-01T16:19:04.042Z,35.60
2017-08-01T16:21:31.180Z,35.20
2017-08-01T16:23:58.316Z,35.10
2017-08-01T16:26:24.737Z,35.00
2017-08-01T16:28:51.125Z,35.20
2017-08-01T16:31:17.548Z,35.30
2017-08-01T16:33:44.251Z,35.30
2017-08-01T16:36:10.648Z,35.30
2017-08-01T16:38:37.054Z,35.10
2017-08-01T16:41:03.464Z,34.70
2017-08-01T16:43:30.607Z,34.60
2017-08-01T16:45:57.013Z,34.60
2017-08-01T16:48:23.427Z,34.60
2017-08-01T16:50:49.846Z,34.70
2017-08-01T16:53:16.232Z,34.80
2017-08-01T16:55:42.622Z,34.90
2017-08-01T16:58:08.998Z,34.70
2017-08-01T17:00:35.375Z,34.80
2017-08-01T17:03:01.792Z,34.70
2017-08-01T17:05:28.176Z,34.50
2017-08-01T17:07:54.584Z,34.50
2017-08-01T17:10:20.964Z,34.30
2017-08-01T17:12:47.364Z,34.30
2017-08-01T17:15:13.804Z,34.10
2017-08-01T17:17:40.192Z,34.00
2017-08-01T17:20:06.565Z,33.90
2017-08-01T17:22:32.962Z,33.90
2017-08-01T17:24:59.396Z,33.70
2017-08-01T17:27:26.181Z,33.50
2017-08-01T17:29:53.461Z,33.40
2017-08-01T17:32:20.613Z,33.30
2017-08-01T17:34:47.758Z,33.10
2017-08-01T17:37:14.153Z,33.00
2017-08-01T17:39:40.540Z,32.90
2017-08-01T17:42:06.927Z,32.90
2017-08-01T17:44:33.312Z,32.90
2017-08-01T17:47:00.052Z,32.90
2017-08-01T17:49:26.470Z,32.90
2017-08-01T17:51:53.606Z,32.90
2017-08-01T17:54:20.752Z,32.80
2017-08-01T17:56:47.153Z,32.80
2017-08-01T17:59:13.552Z,32.70
2017-08-01T18:01:39.968Z,32.60
2017-08-01T18:04:06.369Z,32.50
2017-08-01T18:06:32.782Z,32.40
2017-08-01T18:08:59.178Z,32.20
2017-08-01T18:11:26.308Z,31.90
2017-08-01T18:13:52.709Z,31.90
2017-08-01T18:16:19.304Z,31.90
2017-08-01T18:18:45.691Z,31.80
2017-08-01T18:21:12.095Z,31.70
2017-08-01T18:23:38.482Z,31.60
2017-08-01T18:26:04.874Z,31.50
2017-08-01T18:28:31.273Z,31.40
2017-08-01T18:30:57.668Z,31.40
2017-08-01T18:33:24.088Z,31.30
2017-08-01T18:35:50.522Z,31.30
2017-08-01T18:38:16.921Z,31.30
2017-08-01T18:40:43.317Z,31.20
2017-08-01T18:43:10.468Z,31.10
2017-08-01T18:45:44.585Z,31.10
2017-08-01T18:48:11.016Z,31.00
2017-08-01T18:50:37.423Z,30.90
2017-08-01T18:53:03.822Z,30.80
2017-08-01T18:55:45.174Z,30.80
2017-08-01T18:58:11.992Z,30.80
2017-08-01T19:00:38.388Z,30.60
2017-08-01T19:03:04.820Z,30.50
2017-08-01T19:05:31.249Z,30.50
2017-08-01T19:07:57.649Z,30.40
2017-08-01T19:10:24.037Z,30.40
2017-08-01T19:12:50.458Z,30.40
2017-08-01T19:15:16.850Z,30.40
2017-08-01T19:17:43.296Z,30.30
2017-08-01T19:20:09.725Z,30.20
2017-08-01T19:22:36.129Z,30.20
2017-08-01T19:25:03.264Z,30.30
2017-08-01T19:27:30.604Z,30.30
2017-08-01T19:29:56.998Z,30.20
2017-08-01T19:32:23.424Z,30.30
2017-08-01T19:34:49.832Z,30.20
2017-08-01T19:37:16.214Z,30.20
2017-08-01T19:39:57.547Z,30.20
2017-08-01T19:42:23.959Z,30.10
2017-08-01T19:44:50.368Z,30.10
2017-08-01T19:47:16.751Z,30.10
2017-08-01T19:49:43.157Z,30.20
2017-08-01T19:52:09.564Z,30.20
2017-08-01T19:54:35.941Z,30.20
2017-08-01T19:57:02.355Z,30.20
2017-08-01T19:59:29.522Z,30.40
2017-08-01T20:01:57.553Z,30.40
2017-08-01T20:04:23.997Z,30.40
2017-08-01T20:06:51.178Z,30.30
2017-08-01T20:09:17.606Z,30.20
2017-08-01T20:11:44.745Z,30.10
2017-08-01T20:14:11.896Z,29.90
2017-08-01T20:16:39.045Z,29.80
2017-08-01T20:19:05.494Z,29.70
2017-08-01T20:21:31.932Z,29.70
2017-08-01T20:23:58.332Z,29.70
2017-08-01T20:26:24.742Z,29.70
2017-08-01T20:28:51.153Z,29.60
2017-08-01T20:31:17.550Z,29.40
2017-08-01T20:33:44.668Z,29.40
2017-08-01T20:36:11.066Z,29.40
2017-08-01T20:38:37.459Z,29.30
2017-08-01T20:41:03.851Z,29.30
2017-08-01T20:43:30.224Z,29.10
2017-08-01T20:45:56.614Z,28.90
2017-08-01T20:48:23.013Z,28.80
2017-08-01T20:50:49.421Z,28.70
2017-08-01T20:53:16.562Z,28.70
2017-08-01T20:55:42.985Z,28.70
2017-08-01T20:58:09.396Z,28.70
2017-08-01T21:00:35.802Z,28.60
2017-08-01T21:03:02.200Z,28.50
2017-08-01T21:05:28.664Z,28.40
2017-08-01T21:07:55.469Z,28.20
2017-08-01T21:10:21.867Z,28.00
2017-08-01T21:12:48.280Z,27.90
2017-08-01T21:15:14.669Z,27.80
2017-08-01T21:17:41.075Z,27.60
2017-08-01T21:20:07.514Z,27.60
2017-08-01T21:22:33.950Z,27.50
2017-08-01T21:25:00.394Z,27.50
2017-08-01T21:27:26.823Z,27.30
2017-08-01T21:29:53.247Z,27.20
2017-08-01T21:32:19.680Z,27.00
2017-08-01T21:34:46.102Z,26.90
2017-08-01T21:37:12.516Z,26.90
2017-08-01T21:39:38.913Z,26.80
2017-08-01T21:42:06.055Z,26.90
2017-08-01T21:44:32.470Z,26.90
2017-08-01T21:46:58.864Z,26.80
2017-08-01T21:49:25.304Z,26.80
2017-08-01T21:51:51.711Z,26.60
2017-08-01T21:54:18.124Z,26.50
2017-08-01T21:56:45.288Z,26.30
2017-08-01T21:59:12.435Z,26.20
2017-08-01T22:01:39.597Z,26.10
2017-08-01T22:04:05.987Z,26.10
2017-08-01T22:06:32.448Z,26.10
2017-08-01T22:08:59.593Z,25.90
2017-08-01T22:11:26.740Z,25.90
2017-08-01T22:13:53.897Z,25.90
2017-08-01T22:16:21.051Z,25.70
2017-08-01T22:18:47.437Z,25.60
2017-08-01T22:21:13.812Z,25.50
2017-08-01T22:23:40.221Z,25.40
2017-08-01T22:26:06.630Z,25.20
2017-08-01T22:28:33.026Z,25.20
2017-08-01T22:30:59.428Z,25.20
2017-08-01T22:33:25.834Z,25.20
2017-08-01T22:35:52.235Z,25.20
2017-08-01T22:38:18.659Z,25.20
2017-08-01T22:40:45.075Z,25.00
2017-08-01T22:43:11.503Z,25.00
2017-08-01T22:45:38.653Z,24.90
2017-08-01T22:48:05.822Z,24.80
2017-08-01T22:50:32.224Z,24.80
2017-08-01T22:52:58.624Z,25.00
2017-08-01T22:55:25.031Z,24.90
2017-08-01T22:57:51.726Z,24.80
2017-08-01T23:00:18.166Z,24.70
2017-08-01T23:02:44.542Z,24.70
2017-08-01T23:05:10.959Z,24.50
2017-08-01T23:07:37.973Z,24.10
2017-08-01T23:10:05.111Z,24.20
2017-08-01T23:12:31.515Z,24.20
2017-08-01T23:14:57.934Z,24.40
2017-08-01T23:17:24.366Z,24.50
2017-08-01T23:19:50.783Z,24.70
2017-08-01T23:22:17.187Z,24.50
2017-08-01T23:24:43.582Z,24.50
2017-08-01T23:27:10.251Z,24.50
2017-08-01T23:29:36.651Z,24.40
2017-08-01T23:32:03.067Z,24.60
2017-08-01T23:34:29.477Z,24.70
2017-08-01T23:36:56.607Z,24.70
2017-08-01T23:39:23.010Z,24.70
2017-08-01T23:41:49.419Z,24.60
2017-08-01T23:44:15.858Z,24.70
2017-08-01T23:46:42.274Z,24.90
2017-08-01T23:49:08.708Z,25.40
2017-08-01T23:51:35.101Z,25.90
2017-08-01T23:54:01.513Z,26.20
2017-08-01T23:56:27.895Z,26.40
2017-08-01T23:58:54.285Z,26.60
